createdAt,value
2023-02-19T00:00:44.388Z,0
2023-02-19T00:02:00.697Z,0
2023-02-19T00:03:16.989Z,0
2023-02-19T00:04:33.280Z,0
2023-02-19T00:05:49.579Z,0
2023-02-19T00:07:05.867Z,0
2023-02-19T00:08:22.163Z,0
2023-02-19T00:09:38.450Z,0
2023-02-19T00:10:53.770Z,0
2023-02-19T00:12:10.061Z,0
2023-02-19T00:13:26.345Z,0
2023-02-19T00:14:42.644Z,0
2023-02-19T00:15:58.946Z,0
2023-02-19T00:17:15.241Z,0
2023-02-19T00:18:31.533Z,0
2023-02-19T00:19:47.829Z,0
2023-02-19T00:21:04.114Z,0
2023-02-19T00:22:20.405Z,0
2023-02-19T00:23:36.699Z,0
2023-02-19T00:24:53.003Z,0
2023-02-19T00:26:09.307Z,0
2023-02-19T00:27:24.603Z,0
2023-02-19T00:28:40.908Z,0
2023-02-19T00:29:57.186Z,0
2023-02-19T00:31:13.479Z,0
2023-02-19T00:32:29.779Z,0
2023-02-19T00:33:46.077Z,0
2023-02-19T00:35:02.364Z,0
2023-02-19T00:36:18.656Z,0
2023-02-19T00:37:34.947Z,0
2023-02-19T00:38:51.243Z,0
2023-02-19T00:40:07.550Z,0
2023-02-19T00:41:23.848Z,0
2023-02-19T00:42:40.135Z,0
2023-02-19T00:43:55.437Z,0
2023-02-19T00:45:11.730Z,0
2023-02-19T00:46:28.030Z,0
2023-02-19T00:47:44.333Z,0
2023-02-19T00:49:00.618Z,0
2023-02-19T00:50:16.914Z,0
2023-02-19T00:51:33.218Z,0
2023-02-19T00:52:49.491Z,0
2023-02-19T00:54:05.797Z,0
2023-02-19T00:55:22.080Z,0
2023-02-19T00:56:38.387Z,0
2023-02-19T00:57:54.683Z,0
2023-02-19T00:59:10.974Z,0
2023-02-19T01:00:26.271Z,0
2023-02-19T01:01:42.581Z,0
2023-02-19T01:02:58.876Z,0
2023-02-19T01:04:15.174Z,0
2023-02-19T01:05:31.452Z,0
2023-02-19T01:06:47.752Z,0
2023-02-19T01:08:04.046Z,0
2023-02-19T01:09:20.339Z,0
2023-02-19T01:10:36.639Z,0
2023-02-19T01:11:52.914Z,0
2023-02-19T01:13:09.209Z,0
2023-02-19T01:14:25.503Z,0
2023-02-19T01:15:41.808Z,0
2023-02-19T01:16:57.124Z,0
2023-02-19T01:18:13.418Z,0
2023-02-19T01:19:29.695Z,0
2023-02-19T01:20:46.001Z,0
2023-02-19T01:22:02.303Z,0
2023-02-19T01:23:18.582Z,0
2023-02-19T01:24:34.876Z,0
2023-02-19T01:25:51.170Z,0
2023-02-19T01:27:07.469Z,0
2023-02-19T01:28:23.767Z,0
2023-02-19T01:29:40.046Z,0
2023-02-19T01:30:56.341Z,0
2023-02-19T01:32:12.657Z,0
2023-02-19T01:33:27.951Z,0
2023-02-19T01:34:44.260Z,0
2023-02-19T01:36:00.535Z,0
2023-02-19T01:37:16.826Z,0
2023-02-19T01:38:33.126Z,0
2023-02-19T01:39:49.411Z,0
2023-02-19T01:41:05.718Z,0
2023-02-19T01:42:22.013Z,0
2023-02-19T01:43:38.305Z,0
2023-02-19T01:44:54.604Z,0
2023-02-19T01:46:10.883Z,0
2023-02-19T01:47:27.179Z,0
2023-02-19T01:48:43.495Z,0
2023-02-19T01:49:58.783Z,0
2023-02-19T01:51:15.082Z,0
2023-02-19T01:52:31.385Z,0
2023-02-19T01:53:47.660Z,0
2023-02-19T01:55:03.966Z,0
2023-02-19T01:56:20.253Z,0
2023-02-19T01:57:36.560Z,0
2023-02-19T01:58:52.847Z,0
2023-02-19T02:00:09.142Z,0
2023-02-19T02:01:25.443Z,0
2023-02-19T02:02:41.737Z,0
2023-02-19T02:03:58.024Z,0
2023-02-19T02:05:14.322Z,0
2023-02-19T02:06:29.621Z,0
2023-02-19T02:07:45.924Z,0
2023-02-19T02:09:02.219Z,0
2023-02-19T02:10:18.507Z,0
2023-02-19T02:11:34.800Z,0
2023-02-19T02:12:51.092Z,0
2023-02-19T02:14:07.388Z,0
2023-02-19T02:15:23.690Z,0
2023-02-19T02:16:39.968Z,0
2023-02-19T02:17:56.263Z,0
2023-02-19T02:19:12.579Z,0
2023-02-19T02:20:28.852Z,0
2023-02-19T02:21:45.145Z,0
2023-02-19T02:23:00.473Z,0
2023-02-19T02:24:16.751Z,0
2023-02-19T02:25:33.041Z,0
2023-02-19T02:26:49.350Z,0
2023-02-19T02:28:05.641Z,0
2023-02-19T02:29:21.935Z,0
2023-02-19T02:30:38.222Z,0
2023-02-19T02:31:54.520Z,0
2023-02-19T02:33:10.808Z,0
2023-02-19T02:34:27.110Z,0
2023-02-19T02:35:43.000Z,0
2023-02-19T02:36:59.694Z,0
2023-02-19T02:38:16.008Z,0
2023-02-19T02:39:31.303Z,0
2023-02-19T02:40:47.603Z,0
2023-02-19T02:42:03.893Z,0
2023-02-19T02:43:20.186Z,0
2023-02-19T02:44:36.479Z,0
2023-02-19T02:45:52.791Z,0
2023-02-19T02:47:09.054Z,0
2023-02-19T02:48:25.358Z,0
2023-02-19T02:49:41.640Z,0
2023-02-19T02:50:57.935Z,0
2023-02-19T02:52:14.229Z,0
2023-02-19T02:53:30.531Z,0
2023-02-19T02:54:46.836Z,0
2023-02-19T02:56:02.136Z,0
2023-02-19T02:57:18.422Z,0
2023-02-19T02:58:34.725Z,0
2023-02-19T02:59:51.020Z,0
2023-02-19T03:01:07.320Z,0
2023-02-19T03:02:23.612Z,0
2023-02-19T03:03:39.900Z,0
2023-02-19T03:04:56.197Z,0
2023-02-19T03:06:12.506Z,0
2023-02-19T03:07:28.777Z,0
2023-02-19T03:08:45.075Z,0
2023-02-19T03:10:01.360Z,0
2023-02-19T03:11:17.671Z,0
2023-02-19T03:12:32.982Z,0
2023-02-19T03:13:49.266Z,0
2023-02-19T03:15:05.563Z,0
2023-02-19T03:16:21.867Z,0
2023-02-19T03:17:38.158Z,0
2023-02-19T03:18:54.443Z,0
2023-02-19T03:20:10.729Z,0
2023-02-19T03:21:27.022Z,0
2023-02-19T03:22:43.328Z,0
2023-02-19T03:23:59.633Z,0
2023-02-19T03:25:15.915Z,0
2023-02-19T03:26:32.217Z,0
2023-02-19T03:27:48.506Z,0
2023-02-19T03:29:03.822Z,0
2023-02-19T03:30:20.121Z,0
2023-02-19T03:31:36.389Z,0
2023-02-19T03:32:52.702Z,0
2023-02-19T03:34:08.984Z,0
2023-02-19T03:35:25.286Z,0
2023-02-19T03:36:41.588Z,0
2023-02-19T03:37:57.878Z,0
2023-02-19T03:39:14.174Z,0
2023-02-19T03:40:30.456Z,0
2023-02-19T03:41:46.754Z,0
2023-02-19T03:43:03.055Z,0
2023-02-19T03:44:19.351Z,0
2023-02-19T03:45:34.656Z,0
2023-02-19T03:46:50.934Z,0
2023-02-19T03:48:07.230Z,0
2023-02-19T03:49:23.540Z,0
2023-02-19T03:50:39.836Z,0
2023-02-19T03:51:56.131Z,0
2023-02-19T03:53:12.405Z,0
2023-02-19T03:54:28.723Z,0
2023-02-19T03:55:45.017Z,0
2023-02-19T03:57:01.303Z,0
2023-02-19T03:58:17.580Z,0
2023-02-19T03:59:33.900Z,0
2023-02-19T04:00:50.182Z,0
2023-02-19T04:02:06.599Z,0
2023-02-19T04:03:22.895Z,0
2023-02-19T04:04:39.196Z,0
2023-02-19T04:05:55.482Z,0
2023-02-19T04:07:11.762Z,0
2023-02-19T04:08:28.058Z,0
2023-02-19T04:09:43.389Z,0
2023-02-19T04:10:59.670Z,0
2023-02-19T04:12:15.965Z,0
2023-02-19T04:13:32.262Z,0
2023-02-19T04:14:48.566Z,0
2023-02-19T04:16:04.841Z,0
2023-02-19T04:17:21.150Z,0
2023-02-19T04:18:37.446Z,0
2023-02-19T04:19:53.741Z,0
2023-02-19T04:21:10.020Z,0
2023-02-19T04:22:26.315Z,0
2023-02-19T04:23:42.609Z,0
2023-02-19T04:24:58.909Z,0
2023-02-19T04:26:14.211Z,0
2023-02-19T04:27:30.512Z,0
2023-02-19T04:28:46.808Z,0
2023-02-19T04:30:03.094Z,0
2023-02-19T04:31:19.390Z,0
2023-02-19T04:32:35.697Z,0
2023-02-19T04:33:51.994Z,0
2023-02-19T04:35:08.278Z,0
2023-02-19T04:36:24.567Z,0
2023-02-19T04:37:40.879Z,0
2023-02-19T04:38:57.160Z,0
2023-02-19T04:40:13.448Z,0
2023-02-19T04:41:29.759Z,0
2023-02-19T04:42:45.066Z,0
2023-02-19T04:44:01.349Z,0
2023-02-19T04:45:17.642Z,0
2023-02-19T04:46:33.937Z,0
2023-02-19T04:47:50.243Z,0
2023-02-19T04:49:06.535Z,0
2023-02-19T04:50:22.829Z,0
2023-02-19T04:51:39.121Z,0
2023-02-19T04:52:55.403Z,0
2023-02-19T04:54:11.697Z,0
2023-02-19T04:55:28.001Z,0
2023-02-19T04:56:44.292Z,0
2023-02-19T04:58:00.607Z,0
2023-02-19T04:59:15.903Z,0
2023-02-19T05:00:32.198Z,0
2023-02-19T05:01:48.496Z,0
2023-02-19T05:03:04.803Z,0
2023-02-19T05:04:21.074Z,0
2023-02-19T05:05:37.373Z,0
2023-02-19T05:06:53.682Z,0
2023-02-19T05:08:09.962Z,0
2023-02-19T05:09:26.260Z,0
2023-02-19T05:10:42.546Z,0
2023-02-19T05:11:58.843Z,0
2023-02-19T05:13:15.146Z,0
2023-02-19T05:14:31.440Z,0
2023-02-19T05:15:46.728Z,0
2023-02-19T05:17:03.035Z,0
2023-02-19T05:18:19.337Z,0
2023-02-19T05:19:35.624Z,0
2023-02-19T05:20:51.927Z,0
2023-02-19T05:22:08.198Z,0
2023-02-19T05:23:24.495Z,0
2023-02-19T05:24:40.795Z,0
2023-02-19T05:25:57.086Z,0
2023-02-19T05:27:13.385Z,0
2023-02-19T05:28:29.666Z,0
2023-02-19T05:29:45.992Z,0
2023-02-19T05:31:02.283Z,0
2023-02-19T05:32:17.569Z,0
2023-02-19T05:33:33.868Z,0
2023-02-19T05:34:50.152Z,0
2023-02-19T05:36:06.452Z,0
2023-02-19T05:37:22.755Z,0
2023-02-19T05:38:39.052Z,0
2023-02-19T05:39:55.342Z,0
2023-02-19T05:41:11.640Z,0
2023-02-19T05:42:27.000Z,0
2023-02-19T05:43:44.228Z,0
2023-02-19T05:45:00.517Z,0
2023-02-19T05:46:16.821Z,0
2023-02-19T05:47:33.102Z,0
2023-02-19T05:48:48.412Z,0
2023-02-19T05:50:04.710Z,0
2023-02-19T05:51:21.003Z,0
2023-02-19T05:52:37.304Z,0
2023-02-19T05:53:53.583Z,0
2023-02-19T05:55:09.815Z,1
2023-02-19T05:56:26.115Z,0
2023-02-19T05:57:42.380Z,1
2023-02-19T05:58:58.626Z,1
2023-02-19T06:00:14.921Z,0
2023-02-19T06:01:31.168Z,2
2023-02-19T06:02:47.395Z,1
2023-02-19T06:04:03.658Z,1
2023-02-19T06:05:18.902Z,1
2023-02-19T06:06:35.171Z,2
2023-02-19T06:07:51.411Z,2
2023-02-19T06:09:07.653Z,2
2023-02-19T06:10:23.883Z,2
2023-02-19T06:11:40.120Z,2
2023-02-19T06:12:56.348Z,3
2023-02-19T06:14:12.596Z,5
2023-02-19T06:15:28.844Z,5
2023-02-19T06:16:45.076Z,5
2023-02-19T06:18:01.309Z,5
2023-02-19T06:19:17.561Z,4
2023-02-19T06:20:33.803Z,2
2023-02-19T06:21:49.055Z,6
2023-02-19T06:23:05.293Z,6
2023-02-19T06:24:21.520Z,11
2023-02-19T06:25:37.000Z,11
2023-02-19T06:26:54.003Z,8
2023-02-19T06:28:10.254Z,8
2023-02-19T06:29:26.490Z,17
2023-02-19T06:30:42.737Z,10
2023-02-19T06:31:58.961Z,11
2023-02-19T06:33:15.210Z,8
2023-02-19T06:34:31.443Z,9
2023-02-19T06:35:47.696Z,11
2023-02-19T06:37:03.937Z,14
2023-02-19T06:38:19.201Z,20
2023-02-19T06:39:35.443Z,17
2023-02-19T06:40:51.672Z,8
2023-02-19T06:42:07.897Z,9
2023-02-19T06:43:24.156Z,17
2023-02-19T06:44:40.393Z,20
2023-02-19T06:45:56.632Z,17
2023-02-19T06:47:12.858Z,14
2023-02-19T06:48:29.115Z,9
2023-02-19T06:49:45.355Z,4
2023-02-19T06:51:01.597Z,4
2023-02-19T06:52:17.832Z,3
2023-02-19T06:53:34.089Z,17
2023-02-19T06:54:49.320Z,43
2023-02-19T06:56:05.568Z,44
2023-02-19T06:57:21.797Z,57
2023-02-19T06:58:38.033Z,46
2023-02-19T06:59:54.281Z,49
2023-02-19T07:01:10.524Z,34
2023-02-19T07:02:26.784Z,32
2023-02-19T07:03:43.004Z,25
2023-02-19T07:04:59.264Z,32
2023-02-19T07:06:15.472Z,33
2023-02-19T07:07:31.726Z,26
2023-02-19T07:08:47.969Z,33
2023-02-19T07:10:04.200Z,79
2023-02-19T07:11:19.448Z,84
2023-02-19T07:12:35.707Z,70
2023-02-19T07:15:08.173Z,40
2023-02-19T07:16:24.407Z,79
2023-02-19T07:17:40.668Z,67
2023-02-19T07:18:56.902Z,40
2023-02-19T07:20:13.157Z,40
2023-02-19T07:21:29.385Z,63
2023-02-19T07:22:45.608Z,111
2023-02-19T07:24:01.865Z,38
2023-02-19T07:25:18.089Z,96
2023-02-19T07:26:34.329Z,167
2023-02-19T07:27:49.613Z,120
2023-02-19T07:29:05.832Z,53
2023-02-19T07:30:22.070Z,91
2023-02-19T07:31:38.329Z,158
2023-02-19T07:32:54.565Z,244
2023-02-19T07:34:10.807Z,243
2023-02-19T07:35:27.021Z,204
2023-02-19T07:36:43.277Z,195
2023-02-19T07:37:59.502Z,155
2023-02-19T07:39:15.756Z,87
2023-02-19T07:40:32.001Z,91
2023-02-19T07:41:48.233Z,115
2023-02-19T07:43:04.459Z,162
2023-02-19T07:44:19.718Z,164
2023-02-19T07:45:35.969Z,122
2023-02-19T07:46:52.212Z,146
2023-02-19T07:48:08.463Z,157
2023-02-19T07:49:24.685Z,133
2023-02-19T07:50:40.937Z,148
2023-02-19T07:51:57.153Z,158
2023-02-19T07:53:13.415Z,127
2023-02-19T07:54:29.651Z,104
2023-02-19T07:55:45.882Z,107
2023-02-19T07:57:02.116Z,129
2023-02-19T07:58:18.365Z,147
2023-02-19T07:59:34.610Z,123
2023-02-19T08:00:49.851Z,128
2023-02-19T08:02:06.093Z,147
2023-02-19T08:03:22.350Z,136
2023-02-19T08:04:38.577Z,127
2023-02-19T08:05:54.826Z,173
2023-02-19T08:07:11.054Z,244
2023-02-19T08:08:27.292Z,239
2023-02-19T08:09:43.551Z,220
2023-02-19T08:10:59.796Z,190
2023-02-19T08:12:16.010Z,176
2023-02-19T08:13:32.263Z,191
2023-02-19T08:14:48.506Z,165
2023-02-19T08:16:04.747Z,180
2023-02-19T08:17:19.982Z,166
2023-02-19T08:18:36.238Z,142
2023-02-19T08:19:52.463Z,179
2023-02-19T08:21:08.712Z,221
2023-02-19T08:22:24.951Z,243
2023-02-19T08:23:41.198Z,193
2023-02-19T08:24:56.474Z,189
2023-02-19T08:26:12.710Z,194
2023-02-19T08:27:28.939Z,184
2023-02-19T08:28:45.171Z,225
2023-02-19T08:30:01.407Z,301
2023-02-19T08:31:17.661Z,217
2023-02-19T08:32:33.882Z,88
2023-02-19T08:33:50.153Z,221
2023-02-19T08:35:06.366Z,189
2023-02-19T08:36:22.623Z,228
2023-02-19T08:37:38.840Z,338
2023-02-19T08:38:55.081Z,269
2023-02-19T08:40:11.330Z,293
2023-02-19T08:42:42.815Z,216
2023-02-19T08:43:59.078Z,286
2023-02-19T08:45:15.295Z,182
2023-02-19T08:46:31.564Z,153
2023-02-19T08:47:47.782Z,225
2023-02-19T08:49:04.036Z,246
2023-02-19T08:50:20.272Z,217
2023-02-19T08:51:36.516Z,242
2023-02-19T08:52:52.740Z,315
2023-02-19T08:54:08.994Z,411
2023-02-19T08:55:25.230Z,357
2023-02-19T08:56:41.480Z,379
2023-02-19T08:57:56.714Z,452
2023-02-19T08:59:12.964Z,494
2023-02-19T09:00:29.192Z,441
2023-02-19T09:01:45.447Z,483
2023-02-19T09:03:01.690Z,563
2023-02-19T09:04:17.922Z,511
2023-02-19T09:06:50.404Z,526
2023-02-19T09:08:06.650Z,599
2023-02-19T09:09:22.871Z,550
2023-02-19T09:10:39.112Z,515
2023-02-19T09:11:55.350Z,565
2023-02-19T09:13:11.588Z,634
2023-02-19T09:14:26.859Z,723
2023-02-19T09:15:43.099Z,626
2023-02-19T09:16:59.324Z,543
2023-02-19T09:18:15.576Z,516
2023-02-19T09:19:31.821Z,481
2023-02-19T09:20:48.053Z,411
2023-02-19T09:22:04.294Z,419
2023-02-19T09:23:20.536Z,419
2023-02-19T09:24:36.782Z,412
2023-02-19T09:25:53.016Z,471
2023-02-19T09:27:09.237Z,560
2023-02-19T09:28:25.484Z,597
2023-02-19T09:29:41.720Z,627
2023-02-19T09:30:57.000Z,624
2023-02-19T09:32:13.229Z,660
2023-02-19T09:33:29.452Z,704
2023-02-19T09:34:45.726Z,782
2023-02-19T09:36:01.950Z,748
2023-02-19T09:37:18.178Z,702
2023-02-19T09:38:34.413Z,645
2023-02-19T09:39:50.677Z,695
2023-02-19T09:41:06.923Z,704
2023-02-19T09:42:23.146Z,603
2023-02-19T09:43:39.383Z,811
2023-02-19T09:44:55.616Z,963
2023-02-19T09:46:11.868Z,927
2023-02-19T09:47:27.112Z,1003
2023-02-19T09:48:43.365Z,831
2023-02-19T09:49:59.592Z,865
2023-02-19T09:51:15.834Z,777
2023-02-19T09:52:32.082Z,744
2023-02-19T09:53:48.311Z,715
2023-02-19T09:55:04.548Z,624
2023-02-19T09:56:20.812Z,691
2023-02-19T09:57:37.048Z,731
2023-02-19T09:58:53.299Z,845
2023-02-19T10:00:09.506Z,780
2023-02-19T10:01:25.748Z,1492
2023-02-19T10:02:42.008Z,1659
2023-02-19T10:03:57.264Z,851
2023-02-19T10:05:13.482Z,815
2023-02-19T10:06:29.731Z,2061
2023-02-19T10:07:45.983Z,2744
2023-02-19T10:09:02.228Z,2098
2023-02-19T10:10:18.459Z,2023
2023-02-19T10:11:34.695Z,1302
2023-02-19T10:12:50.942Z,1808
2023-02-19T10:14:07.157Z,3590
2023-02-19T10:15:23.404Z,1215
2023-02-19T10:16:39.652Z,2649
2023-02-19T10:17:55.891Z,1952
2023-02-19T10:19:12.128Z,1221
2023-02-19T10:20:28.495Z,1147
2023-02-19T10:21:44.720Z,1548
2023-02-19T10:23:00.988Z,1562
2023-02-19T10:24:17.208Z,1320
2023-02-19T10:25:33.437Z,1130
2023-02-19T10:26:49.677Z,1004
2023-02-19T10:28:05.959Z,861
2023-02-19T10:29:22.172Z,662
2023-02-19T10:30:38.421Z,711
2023-02-19T10:31:54.652Z,831
2023-02-19T10:33:10.886Z,3667
2023-02-19T10:34:27.146Z,4503
2023-02-19T10:35:43.364Z,1594
2023-02-19T10:36:58.618Z,1258
2023-02-19T10:38:14.856Z,2325
2023-02-19T10:39:31.094Z,2085
2023-02-19T10:40:47.354Z,1253
2023-02-19T10:42:03.599Z,877
2023-02-19T10:43:19.833Z,785
2023-02-19T10:44:36.076Z,837
2023-02-19T10:45:52.293Z,857
2023-02-19T10:47:08.528Z,917
2023-02-19T10:48:24.773Z,925
2023-02-19T10:49:41.033Z,964
2023-02-19T10:50:57.247Z,926
2023-02-19T10:52:13.509Z,972
2023-02-19T10:53:28.767Z,1155
2023-02-19T10:54:44.982Z,1171
2023-02-19T10:56:01.249Z,1430
2023-02-19T10:57:17.496Z,1447
2023-02-19T10:58:33.723Z,1312
2023-02-19T10:59:49.955Z,1466
2023-02-19T11:01:06.180Z,1514
2023-02-19T11:02:22.430Z,1566
2023-02-19T11:03:38.677Z,1623
2023-02-19T11:04:54.903Z,1552
2023-02-19T11:06:11.149Z,1499
2023-02-19T11:07:27.392Z,1510
2023-02-19T11:08:43.626Z,1518
2023-02-19T11:09:58.891Z,1430
2023-02-19T11:11:15.124Z,1306
2023-02-19T11:12:31.356Z,1099
2023-02-19T11:13:47.591Z,975
2023-02-19T11:15:03.847Z,888
2023-02-19T11:16:20.068Z,829
2023-02-19T11:17:36.318Z,877
2023-02-19T11:18:52.563Z,828
2023-02-19T11:20:08.801Z,900
2023-02-19T11:21:25.053Z,887
2023-02-19T11:22:41.296Z,932
2023-02-19T11:23:57.507Z,1104
2023-02-19T11:25:13.755Z,1191
2023-02-19T11:26:29.026Z,1208
2023-02-19T11:27:45.265Z,1739
2023-02-19T11:29:01.492Z,1734
2023-02-19T11:30:17.747Z,1752
2023-02-19T11:31:33.966Z,1578
2023-02-19T11:32:50.211Z,1362
2023-02-19T11:34:06.458Z,1229
2023-02-19T11:35:22.685Z,1215
2023-02-19T11:36:38.920Z,1458
2023-02-19T11:37:55.190Z,2178
2023-02-19T11:39:11.401Z,1947
2023-02-19T11:40:27.655Z,2203
2023-02-19T11:41:43.893Z,1970
2023-02-19T11:42:59.137Z,1597
2023-02-19T11:44:15.380Z,1382
2023-02-19T11:45:31.641Z,1465
2023-02-19T11:46:47.870Z,1388
2023-02-19T11:48:04.114Z,1260
2023-02-19T11:49:20.356Z,1303
2023-02-19T11:50:36.601Z,1365
2023-02-19T11:51:52.834Z,1373
2023-02-19T11:53:09.076Z,1340
2023-02-19T11:54:25.296Z,1387
2023-02-19T11:55:41.561Z,1415
2023-02-19T11:56:57.780Z,1253
2023-02-19T11:58:14.034Z,945
2023-02-19T11:59:29.283Z,699
2023-02-19T12:00:45.541Z,884
2023-02-19T12:02:01.750Z,1025
2023-02-19T12:03:18.003Z,938
2023-02-19T12:04:34.240Z,859
2023-02-19T12:05:50.497Z,794
2023-02-19T12:07:06.722Z,943
2023-02-19T12:08:22.971Z,1149
2023-02-19T12:09:39.210Z,1086
2023-02-19T12:10:55.450Z,1306
2023-02-19T12:12:11.666Z,1523
2023-02-19T12:13:27.929Z,1349
2023-02-19T12:14:44.165Z,1415
2023-02-19T12:15:59.423Z,964
2023-02-19T12:17:15.667Z,1068
2023-02-19T12:18:31.895Z,6045
2023-02-19T12:19:48.127Z,1357
2023-02-19T12:21:04.360Z,8184
2023-02-19T12:22:20.622Z,1005
2023-02-19T12:23:36.874Z,5148
2023-02-19T12:24:53.088Z,1027
2023-02-19T12:26:09.333Z,5124
2023-02-19T12:27:25.590Z,2594
2023-02-19T12:28:41.825Z,3551
2023-02-19T12:29:58.056Z,752
2023-02-19T12:31:14.299Z,2251
2023-02-19T12:32:29.547Z,1471
2023-02-19T12:33:45.808Z,832
2023-02-19T12:35:02.015Z,1823
2023-02-19T12:36:18.273Z,8950
2023-02-19T12:37:34.494Z,3373
2023-02-19T12:38:50.753Z,1856
2023-02-19T12:40:06.022Z,6942
2023-02-19T12:41:22.269Z,8738
2023-02-19T12:42:38.508Z,1374
2023-02-19T12:43:54.734Z,900
2023-02-19T12:45:10.989Z,6384
2023-02-19T12:46:27.238Z,1033
2023-02-19T12:47:43.454Z,2434
2023-02-19T12:48:59.708Z,1376
2023-02-19T12:50:15.934Z,7214
2023-02-19T12:51:32.189Z,7098
2023-02-19T12:52:48.415Z,7510
2023-02-19T12:54:04.670Z,7616
2023-02-19T12:55:20.909Z,7380
2023-02-19T12:56:36.170Z,5962
2023-02-19T12:57:52.393Z,7271
2023-02-19T12:59:08.640Z,7371
2023-02-19T13:00:24.895Z,7284
2023-02-19T13:01:41.131Z,7363
2023-02-19T13:02:57.368Z,9652
2023-02-19T13:04:13.627Z,7731
2023-02-19T13:05:29.840Z,10111
2023-02-19T13:06:46.101Z,2518
2023-02-19T13:08:02.342Z,1551
2023-02-19T13:09:18.592Z,2769
2023-02-19T13:10:34.831Z,1324
2023-02-19T13:11:51.044Z,891
2023-02-19T13:13:06.302Z,5245
2023-02-19T13:14:22.543Z,1506
2023-02-19T13:15:38.783Z,785
2023-02-19T13:16:55.034Z,1640
2023-02-19T13:18:11.267Z,8024
2023-02-19T13:19:27.512Z,7912
2023-02-19T13:20:43.772Z,7935
2023-02-19T13:21:59.997Z,8104
2023-02-19T13:23:16.224Z,7904
2023-02-19T13:24:32.478Z,7730
2023-02-19T13:25:48.703Z,7905
2023-02-19T13:27:04.954Z,8066
2023-02-19T13:28:21.180Z,7887
2023-02-19T13:30:52.698Z,8048
2023-02-19T13:32:08.941Z,11099
2023-02-19T13:33:25.161Z,8238
2023-02-19T13:34:41.428Z,2599
2023-02-19T13:35:57.662Z,1717
2023-02-19T13:37:13.878Z,1280
2023-02-19T13:38:30.134Z,937
2023-02-19T13:39:46.370Z,7988
2023-02-19T13:41:02.613Z,7796
2023-02-19T13:42:18.855Z,7676
2023-02-19T13:43:35.111Z,10786
2023-02-19T13:44:51.348Z,10919
2023-02-19T13:46:06.606Z,6740
2023-02-19T13:47:22.845Z,1317
2023-02-19T13:48:39.083Z,1543
2023-02-19T13:49:55.328Z,722
2023-02-19T13:51:11.563Z,3071
2023-02-19T13:52:27.788Z,1276
2023-02-19T13:53:44.053Z,2334
2023-02-19T13:55:00.293Z,957
2023-02-19T13:56:16.512Z,6769
2023-02-19T13:57:32.779Z,3019
2023-02-19T13:58:48.995Z,1513
2023-02-19T14:00:05.252Z,679
2023-02-19T14:01:21.475Z,1496
2023-02-19T14:02:36.736Z,9156
2023-02-19T14:03:52.976Z,833
2023-02-19T14:05:09.213Z,1669
2023-02-19T14:06:25.454Z,5728
2023-02-19T14:07:41.700Z,7780
2023-02-19T14:08:57.929Z,5974
2023-02-19T14:10:14.174Z,6013
2023-02-19T14:11:30.410Z,7225
2023-02-19T14:12:46.673Z,8465
2023-02-19T14:14:02.922Z,5487
2023-02-19T14:15:19.164Z,7811
2023-02-19T14:16:35.387Z,1029
2023-02-19T14:17:51.631Z,5858
2023-02-19T14:19:06.872Z,1605
2023-02-19T14:20:23.140Z,6594
2023-02-19T14:21:39.380Z,7494
2023-02-19T14:22:55.619Z,5890
2023-02-19T14:24:11.861Z,7948
2023-02-19T14:25:28.104Z,5904
2023-02-19T14:26:44.339Z,4290
2023-02-19T14:28:00.584Z,8894
2023-02-19T14:29:16.815Z,1873
2023-02-19T14:30:33.056Z,1558
2023-02-19T14:31:49.295Z,1048
2023-02-19T14:33:05.542Z,4167
2023-02-19T14:34:21.769Z,844
2023-02-19T14:35:37.018Z,1460
2023-02-19T14:36:53.277Z,8788
2023-02-19T14:38:09.517Z,1486
2023-02-19T14:39:25.763Z,2733
2023-02-19T14:40:41.995Z,4874
2023-02-19T14:41:58.234Z,6686
2023-02-19T14:43:14.484Z,7016
2023-02-19T14:44:30.709Z,7247
2023-02-19T14:45:46.954Z,8556
2023-02-19T14:47:03.187Z,4995
2023-02-19T14:48:19.445Z,7009
2023-02-19T14:49:35.676Z,6325
2023-02-19T14:50:51.901Z,10538
2023-02-19T14:52:07.173Z,3441
2023-02-19T14:53:23.408Z,3934
2023-02-19T14:54:39.651Z,6645
2023-02-19T14:55:55.881Z,7908
2023-02-19T14:57:12.133Z,4478
2023-02-19T14:58:28.362Z,7752
2023-02-19T14:59:44.612Z,5318
2023-02-19T15:01:00.849Z,4924
2023-02-19T15:02:17.075Z,2157
2023-02-19T15:03:33.321Z,3457
2023-02-19T15:04:49.567Z,3505
2023-02-19T15:06:05.815Z,2793
2023-02-19T15:07:22.042Z,4885
2023-02-19T15:08:38.414Z,4184
2023-02-19T15:09:54.642Z,4777
2023-02-19T15:11:10.892Z,4632
2023-02-19T15:12:27.134Z,5386
2023-02-19T15:13:43.370Z,3008
2023-02-19T15:14:59.612Z,4502
2023-02-19T15:16:15.853Z,7007
2023-02-19T15:17:32.092Z,874
2023-02-19T15:18:48.343Z,3259
2023-02-19T15:20:04.573Z,4711
2023-02-19T15:21:20.827Z,3862
2023-02-19T15:22:37.050Z,4216
2023-02-19T15:23:53.315Z,7775
2023-02-19T15:25:08.559Z,1322
2023-02-19T15:26:24.806Z,5117
2023-02-19T15:27:41.029Z,5095
2023-02-19T15:28:57.282Z,5580
2023-02-19T15:30:13.517Z,3631
2023-02-19T15:31:29.761Z,2898
2023-02-19T15:32:45.997Z,426
2023-02-19T15:34:02.239Z,858
2023-02-19T15:35:18.485Z,4184
2023-02-19T15:36:34.722Z,3258
2023-02-19T15:37:50.970Z,964
2023-02-19T15:39:07.196Z,1464
2023-02-19T15:40:23.442Z,782
2023-02-19T15:41:38.700Z,427
2023-02-19T15:42:54.932Z,273
2023-02-19T15:44:11.182Z,465
2023-02-19T15:45:27.424Z,1312
2023-02-19T15:46:43.663Z,399
2023-02-19T15:47:59.899Z,669
2023-02-19T15:49:16.137Z,518
2023-02-19T15:50:32.366Z,362
2023-02-19T15:53:04.865Z,280
2023-02-19T15:54:21.102Z,276
2023-02-19T15:55:37.328Z,212
2023-02-19T15:56:53.579Z,234
2023-02-19T15:58:08.837Z,327
2023-02-19T15:59:25.077Z,307
2023-02-19T16:00:41.311Z,247
2023-02-19T16:01:57.556Z,395
2023-02-19T16:03:13.786Z,330
2023-02-19T16:04:30.039Z,281
2023-02-19T16:05:46.279Z,250
2023-02-19T16:07:02.512Z,293
2023-02-19T16:08:18.739Z,263
2023-02-19T16:09:34.998Z,281
2023-02-19T16:10:51.238Z,275
2023-02-19T16:12:07.474Z,239
2023-02-19T16:13:23.713Z,220
2023-02-19T16:15:55.208Z,187
2023-02-19T16:17:11.451Z,155
2023-02-19T16:18:27.699Z,149
2023-02-19T16:19:43.942Z,161
2023-02-19T16:21:00.162Z,136
2023-02-19T16:22:16.415Z,115
2023-02-19T16:23:32.631Z,113
2023-02-19T16:24:48.891Z,110
2023-02-19T16:26:05.122Z,105
2023-02-19T16:27:21.378Z,94
2023-02-19T16:28:37.608Z,81
2023-02-19T16:29:53.858Z,73
2023-02-19T16:31:09.101Z,65
2023-02-19T16:32:25.343Z,57
2023-02-19T16:33:41.567Z,58
2023-02-19T16:34:57.830Z,46
2023-02-19T16:36:14.048Z,40
2023-02-19T16:37:30.296Z,29
2023-02-19T16:38:46.524Z,32
2023-02-19T16:40:02.777Z,25
2023-02-19T16:41:19.006Z,20
2023-02-19T16:42:35.268Z,22
2023-02-19T16:43:51.485Z,13
2023-02-19T16:46:23.981Z,12
2023-02-19T16:47:39.239Z,7
2023-02-19T16:48:55.477Z,7
2023-02-19T16:50:11.708Z,6
2023-02-19T16:51:27.965Z,4
2023-02-19T16:52:44.198Z,5
2023-02-19T16:54:00.431Z,6
2023-02-19T16:55:15.681Z,1
2023-02-19T16:56:31.944Z,2
2023-02-19T16:57:48.181Z,2
2023-02-19T16:59:04.412Z,1
2023-02-19T17:00:20.655Z,1
2023-02-19T17:01:36.893Z,1
2023-02-19T17:02:53.126Z,1
2023-02-19T17:04:09.424Z,0
2023-02-19T17:05:25.000Z,0
2023-02-19T17:06:42.003Z,0
2023-02-19T17:07:58.323Z,0
2023-02-19T17:09:14.616Z,0
2023-02-19T17:10:30.889Z,0
2023-02-19T17:11:46.193Z,0
2023-02-19T17:13:02.495Z,0
2023-02-19T17:14:18.783Z,0
2023-02-19T17:15:35.085Z,0
2023-02-19T17:16:51.385Z,0
2023-02-19T17:18:07.684Z,0
2023-02-19T17:19:23.968Z,0
2023-02-19T17:20:40.264Z,0
2023-02-19T17:21:56.551Z,0
2023-02-19T17:23:12.850Z,0
2023-02-19T17:24:29.130Z,0
2023-02-19T17:25:45.422Z,0
2023-02-19T17:27:01.718Z,0
2023-02-19T17:28:17.044Z,0
2023-02-19T17:29:33.319Z,0
2023-02-19T17:30:49.636Z,0
2023-02-19T17:32:05.925Z,0
2023-02-19T17:33:22.214Z,0
2023-02-19T17:34:38.498Z,0
2023-02-19T17:35:54.795Z,0
2023-02-19T17:37:11.089Z,0
2023-02-19T17:38:27.391Z,0
2023-02-19T17:39:43.682Z,0
2023-02-19T17:40:59.978Z,0
2023-02-19T17:42:16.260Z,0
2023-02-19T17:43:32.558Z,0
2023-02-19T17:44:47.882Z,0
2023-02-19T17:46:04.166Z,0
2023-02-19T17:47:20.447Z,0
2023-02-19T17:48:36.744Z,0
2023-02-19T17:49:53.051Z,0
2023-02-19T17:51:09.347Z,0
2023-02-19T17:52:25.632Z,0
2023-02-19T17:53:41.924Z,0
2023-02-19T17:54:58.221Z,0
2023-02-19T17:56:14.516Z,0
2023-02-19T17:57:30.803Z,0
2023-02-19T17:58:47.112Z,0
2023-02-19T18:00:03.400Z,0
2023-02-19T18:01:18.711Z,0
2023-02-19T18:02:35.008Z,0